Time;durP1;ratioP1;P1;durP2;ratioP2;P2;SDS_P1;SDS_P2;PMS_P1;PMS_P2;Temp;Humidity;BMP_temperature;BMP_pressure;BME280_temperature;BME280_humidity;BME280_pressure;Samples;Min_cycle;Max_cycle;Signal;HPM_P1;HPM_P2
2023/01/08 00:01:20;;;;;;;40.90;26.63;;;;;;;;;;10109412;28;20053;-61
2023/01/08 00:06:17;;;;;;;37.35;28.90;;;;;;;;;;10094653;28;20061;-61
2023/01/08 00:11:11;;;;;;;38.70;27.27;;;;;;;;;;10107344;28;20493;-61
2023/01/08 00:16:12;;;;;;;33.15;26.85;;;;;;;;;;10106596;28;20123;-61
2023/01/08 00:21:07;;;;;;;49.08;29.85;;;;;;;;;;10103896;28;20053;-61
2023/01/08 00:26:06;;;;;;;46.80;31.70;;;;;;;;;;10113504;28;20070;-61
2023/01/08 00:31:02;;;;;;;;;;;;;;;;;;10111645;28;20072;-61
2023/01/08 00:35:56;;;;;;;42.38;29.58;;;;;;;;;;10105767;28;19952;-61
2023/01/08 00:40:50;;;;;;;35.50;26.33;;;;;;;;;;10106058;28;20053;-61
2023/01/08 00:45:44;;;;;;;32.97;24.27;;;;;;;;;;10106011;28;20064;-61
2023/01/08 00:50:38;;;;;;;34.50;24.98;;;;;;;;;;10109506;28;20088;-61
2023/01/08 00:55:31;;;;;;;34.80;25.27;;;;;;;;;;10109500;28;20057;-60
2023/01/08 01:00:25;;;;;;;38.60;26.17;;;;;;;;;;10117552;28;20079;-61
2023/01/08 01:05:19;;;;;;;37.60;24.70;;;;;;;;;;10105190;28;20485;-61
2023/01/08 01:10:14;;;;;;;35.85;25.33;;;;;;;;;;10105277;28;20063;-61
2023/01/08 01:15:09;;;;;;;34.80;23.98;;;;;;;;;;10109175;28;20055;-61
2023/01/08 01:20:03;;;;;;;31.23;23.80;;;;;;;;;;10103770;28;20398;-61
2023/01/08 01:24:57;;;;;;;39.30;25.80;;;;;;;;;;10106760;28;20045;-61
2023/01/08 01:29:51;;;;;;;34.58;26.48;;;;;;;;;;10106721;28;20547;-61
2023/01/08 01:34:45;;;;;;;36.33;27.70;;;;;;;;;;10104471;28;20045;-61
2023/01/08 01:39:42;;;;;;;38.33;27.33;;;;;;;;;;10111798;28;20041;-61
2023/01/08 01:44:43;;;;;;;36.80;25.83;;;;;;;;;;10119400;28;20443;-61
2023/01/08 01:49:38;;;;;;;33.08;25.83;;;;;;;;;;10111999;28;20490;-61
2023/01/08 01:54:34;;;;;;;35.28;27.95;;;;;;;;;;10118632;28;20053;-61
2023/01/08 01:59:27;;;;;;;36.22;27.63;;;;;;;;;;10097175;28;20148;-61
2023/01/08 02:04:21;;;;;;;37.25;26.33;;;;;;;;;;10110883;28;20044;-61
2023/01/08 02:09:28;;;;;;;33.15;25.60;;;;;;;;;;10110665;28;20048;-61
2023/01/08 02:14:38;;;;;;;34.15;25.80;;;;;;;;;;10110636;28;20048;-61
2023/01/08 02:19:45;;;;;;;35.75;27.02;;;;;;;;;;10111156;28;20088;-61
2023/01/08 02:24:44;;;;;;;40.95;28.88;;;;;;;;;;10108913;28;20045;-61
2023/01/08 02:29:39;;;;;;;37.13;26.80;;;;;;;;;;10109103;28;20052;-61
2023/01/08 02:34:33;;;;;;;37.80;27.52;;;;;;;;;;10109582;28;20135;-61
2023/01/08 02:39:42;;;;;;;36.80;26.73;;;;;;;;;;10109826;28;20072;-61
2023/01/08 02:44:55;;;;;;;34.97;26.17;;;;;;;;;;10107467;28;20052;-61
2023/01/08 02:49:53;;;;;;;38.78;27.10;;;;;;;;;;10102655;28;20053;-61
2023/01/08 02:54:48;;;;;;;36.25;27.38;;;;;;;;;;10109010;28;20057;-60
2023/01/08 02:59:43;;;;;;;35.67;28.42;;;;;;;;;;10109570;28;20057;-61
2023/01/08 03:04:42;;;;;;;43.35;27.25;;;;;;;;;;10107203;28;20421;-61
2023/01/08 03:09:36;;;;;;;35.20;26.83;;;;;;;;;;10107386;28;20102;-60
2023/01/08 03:14:40;;;;;;;40.13;29.63;;;;;;;;;;10108423;28;20049;-61
2023/01/08 03:19:56;;;;;;;33.53;26.92;;;;;;;;;;10103318;28;20417;-61
2023/01/08 03:24:51;;;;;;;39.90;27.88;;;;;;;;;;10108200;28;20677;-61
2023/01/08 03:29:46;;;;;;;36.75;26.50;;;;;;;;;;10116419;28;20073;-61
2023/01/08 03:34:41;;;;;;;36.90;26.60;;;;;;;;;;10100923;28;20053;-61
2023/01/08 03:39:45;;;;;;;36.17;27.73;;;;;;;;;;10090536;28;20098;-61
2023/01/08 03:44:39;;;;;;;38.35;27.75;;;;;;;;;;10097445;28;20049;-61
2023/01/08 03:49:33;;;;;;;37.35;27.17;;;;;;;;;;10107714;28;20048;-61
2023/01/08 03:54:31;;;;;;;39.53;29.77;;;;;;;;;;10107666;28;20563;-61
2023/01/08 03:59:24;;;;;;;34.53;24.80;;;;;;;;;;10107732;28;20052;-61
2023/01/08 04:04:17;;;;;;;37.97;25.52;;;;;;;;;;10090469;28;20049;-61
2023/01/08 04:09:10;;;;;;;43.97;28.25;;;;;;;;;;10114943;28;20512;-61
2023/01/08 04:14:03;;;;;;;34.35;25.67;;;;;;;;;;10108952;28;20057;-61
2023/01/08 04:18:56;;;;;;;40.60;28.42;;;;;;;;;;10106857;28;20502;-61
2023/01/08 04:23:50;;;;;;;41.75;27.08;;;;;;;;;;10106331;28;20049;-61
2023/01/08 04:28:44;;;;;;;41.65;26.33;;;;;;;;;;10105566;28;20056;-61
2023/01/08 04:33:38;;;;;;;38.35;26.40;;;;;;;;;;10106055;28;20071;-61
2023/01/08 04:38:31;;;;;;;39.55;27.35;;;;;;;;;;10111186;28;20184;-61
2023/01/08 04:43:25;;;;;;;40.60;27.48;;;;;;;;;;10105890;28;20094;-61
2023/01/08 04:48:19;;;;;;;39.95;28.27;;;;;;;;;;10106978;28;20056;-60
2023/01/08 04:53:13;;;;;;;37.97;27.88;;;;;;;;;;10105622;28;20063;-61
2023/01/08 04:58:07;;;;;;;43.83;28.60;;;;;;;;;;10105312;28;20056;-61
2023/01/08 05:03:01;;;;;;;37.60;29.20;;;;;;;;;;10115945;28;20048;-61
2023/01/08 05:07:55;;;;;;;47.50;29.00;;;;;;;;;;10105529;28;20071;-61
2023/01/08 05:12:49;;;;;;;43.45;29.83;;;;;;;;;;10110477;28;20048;-61
2023/01/08 05:17:43;;;;;;;36.60;28.08;;;;;;;;;;10115892;28;20139;-61
2023/01/08 05:22:36;;;;;;;34.10;27.35;;;;;;;;;;10118391;28;20052;-61
2023/01/08 05:27:30;;;;;;;41.38;27.85;;;;;;;;;;10112236;28;20071;-60
2023/01/08 05:32:24;;;;;;;35.85;27.05;;;;;;;;;;10112162;28;20067;-60
2023/01/08 05:37:18;;;;;;;39.17;26.98;;;;;;;;;;10113004;28;20053;-61
2023/01/08 05:42:11;;;;;;;33.20;25.42;;;;;;;;;;10114685;28;20061;-60
2023/01/08 05:47:05;;;;;;;36.35;26.25;;;;;;;;;;10112464;28;20102;-61
2023/01/08 05:51:59;;;;;;;36.40;24.92;;;;;;;;;;10111523;28;20120;-60
2023/01/08 05:56:53;;;;;;;35.40;25.38;;;;;;;;;;10100046;28;20454;-61
2023/01/08 06:01:47;;;;;;;38.78;27.40;;;;;;;;;;10110868;28;20053;-61
2023/01/08 06:06:41;;;;;;;41.70;30.27;;;;;;;;;;10111006;28;20127;-61
2023/01/08 06:11:34;;;;;;;42.60;30.00;;;;;;;;;;10112569;28;20106;-61
2023/01/08 06:16:28;;;;;;;39.53;30.75;;;;;;;;;;10111021;28;20073;-61
2023/01/08 06:21:22;;;;;;;49.80;33.42;;;;;;;;;;10109797;28;20060;-60
2023/01/08 06:26:16;;;;;;;53.03;33.95;;;;;;;;;;10119426;28;20098;-60
2023/01/08 06:31:10;;;;;;;58.15;39.55;;;;;;;;;;10109060;28;20509;-61
2023/01/08 06:36:06;;;;;;;52.25;34.58;;;;;;;;;;10122998;28;20041;-61
2023/01/08 06:41:03;;;;;;;49.13;32.90;;;;;;;;;;10132256;28;20110;-61
2023/01/08 06:45:57;;;;;;;52.25;33.33;;;;;;;;;;10128609;28;20631;-61
2023/01/08 06:50:50;;;;;;;46.58;33.00;;;;;;;;;;10121614;28;20052;-61
2023/01/08 06:55:44;;;;;;;50.38;33.65;;;;;;;;;;10121217;28;20045;-61
2023/01/08 07:00:38;;;;;;;54.78;32.53;;;;;;;;;;10115634;28;20053;-60
2023/01/08 07:05:31;;;;;;;66.60;38.58;;;;;;;;;;10110869;28;20041;-61
2023/01/08 07:10:26;;;;;;;71.28;37.33;;;;;;;;;;10108328;28;20456;-60
2023/01/08 07:15:20;;;;;;;75.20;39.60;;;;;;;;;;10109021;28;20053;-61
2023/01/08 07:20:14;;;;;;;83.53;40.22;;;;;;;;;;10113410;28;20084;-61
2023/01/08 07:25:09;;;;;;;81.15;44.33;;;;;;;;;;10110346;28;20055;-62
2023/01/08 07:30:03;;;;;;;71.45;42.88;;;;;;;;;;10123812;28;20083;-61
2023/01/08 07:34:58;;;;;;;79.32;45.47;;;;;;;;;;10129655;28;20044;-61
2023/01/08 07:39:52;;;;;;;84.70;43.00;;;;;;;;;;10140216;28;20052;-61
2023/01/08 07:44:46;;;;;;;82.82;42.22;;;;;;;;;;10139605;28;20119;-61
2023/01/08 07:49:40;;;;;;;93.88;48.28;;;;;;;;;;10139550;28;20049;-61
2023/01/08 07:54:34;;;;;;;81.88;42.88;;;;;;;;;;10136264;28;20052;-60
2023/01/08 07:59:27;;;;;;;80.97;41.15;;;;;;;;;;10133558;28;20044;-61
2023/01/08 08:04:21;;;;;;;74.35;40.70;;;;;;;;;;10126727;28;20122;-61
2023/01/08 08:09:15;;;;;;;66.85;38.38;;;;;;;;;;10135500;28;20044;-61
2023/01/08 08:14:09;;;;;;;63.08;37.72;;;;;;;;;;10139111;28;20047;-61
2023/01/08 08:19:02;;;;;;;69.55;38.13;;;;;;;;;;10136022;28;20098;-61
2023/01/08 08:23:56;;;;;;;57.03;37.70;;;;;;;;;;10136398;28;20045;-60
2023/01/08 08:28:50;;;;;;;63.75;36.80;;;;;;;;;;10133543;28;20047;-60
2023/01/08 08:33:44;;;;;;;59.47;35.38;;;;;;;;;;10137178;28;20123;-60
2023/01/08 08:38:39;;;;;;;58.65;34.35;;;;;;;;;;10135228;28;20087;-60
2023/01/08 08:43:33;;;;;;;50.63;32.67;;;;;;;;;;10134072;28;20044;-60
2023/01/08 08:48:27;;;;;;;55.65;34.83;;;;;;;;;;10108690;28;20370;-61
2023/01/08 08:53:21;;;;;;;51.80;33.35;;;;;;;;;;10105682;28;20049;-60
2023/01/08 08:58:14;;;;;;;53.70;35.58;;;;;;;;;;10109582;28;20048;-61
2023/01/08 09:03:12;;;;;;;55.08;35.42;;;;;;;;;;10108459;28;20049;-61
2023/01/08 09:08:06;;;;;;;55.05;33.28;;;;;;;;;;10104887;28;20132;-60
2023/01/08 09:13:00;;;;;;;52.72;34.17;;;;;;;;;;10106307;28;20080;-61
2023/01/08 09:17:54;;;;;;;49.40;33.00;;;;;;;;;;10113468;28;20053;-61
2023/01/08 09:22:47;;;;;;;49.92;31.38;;;;;;;;;;10103301;28;20049;-61
2023/01/08 09:27:41;;;;;;;53.60;31.90;;;;;;;;;;10116663;28;20045;-61
2023/01/08 09:32:35;;;;;;;47.97;30.45;;;;;;;;;;10110366;28;20073;-61
2023/01/08 09:37:29;;;;;;;49.72;31.98;;;;;;;;;;10106094;28;20045;-61
2023/01/08 09:42:25;;;;;;;46.40;28.42;;;;;;;;;;10102249;28;20052;-64
2023/01/08 09:47:28;;;;;;;47.42;28.48;;;;;;;;;;10109551;28;20053;-60
2023/01/08 09:52:22;;;;;;;43.85;29.45;;;;;;;;;;10102750;28;20053;-61
2023/01/08 09:57:18;;;;;;;53.83;32.85;;;;;;;;;;10108665;28;20056;-61
2023/01/08 10:02:17;;;;;;;53.25;30.48;;;;;;;;;;10122651;28;20048;-60
2023/01/08 10:07:10;;;;;;;50.00;31.50;;;;;;;;;;10107980;28;20048;-60
2023/01/08 10:12:05;;;;;;;48.58;30.77;;;;;;;;;;10111632;28;20135;-60
2023/01/08 10:17:30;;;;;;;47.72;29.35;;;;;;;;;;10097871;28;20084;-61
2023/01/08 10:22:28;;;;;;;46.38;29.23;;;;;;;;;;10100083;28;20476;-60
2023/01/08 10:27:22;;;;;;;62.55;34.22;;;;;;;;;;10070118;28;20067;-59
2023/01/08 10:32:25;;;;;;;62.60;34.88;;;;;;;;;;10104621;28;20136;-60
2023/01/08 10:37:28;;;;;;;59.40;33.97;;;;;;;;;;10083826;28;20387;-60
2023/01/08 10:42:22;;;;;;;66.50;35.83;;;;;;;;;;10101808;28;20052;-60
2023/01/08 10:47:18;;;;;;;69.72;33.22;;;;;;;;;;10096704;28;20045;-60
2023/01/08 10:52:32;;;;;;;61.78;32.17;;;;;;;;;;10094892;28;20068;-66
2023/01/08 10:57:31;;;;;;;65.55;33.28;;;;;;;;;;10098162;28;20102;-65
2023/01/08 11:02:32;;;;;;;63.83;33.08;;;;;;;;;;10093852;28;20082;-65
2023/01/08 11:07:34;;;;;;;59.47;35.30;;;;;;;;;;10089080;28;20052;-64
2023/01/08 11:12:27;;;;;;;52.53;32.50;;;;;;;;;;10096512;28;20429;-59
2023/01/08 11:17:23;;;;;;;53.50;31.50;;;;;;;;;;10100171;28;20140;-59
2023/01/08 11:22:16;;;;;;;48.83;29.73;;;;;;;;;;10100261;28;20481;-59
2023/01/08 11:27:15;;;;;;;57.65;31.30;;;;;;;;;;10098275;28;20072;-60
2023/01/08 11:32:14;;;;;;;54.63;33.60;;;;;;;;;;10099973;28;20411;-60
2023/01/08 11:37:14;;;;;;;56.00;33.97;;;;;;;;;;10095464;28;20060;-59
2023/01/08 11:42:19;;;;;;;68.05;34.83;;;;;;;;;;10075814;28;20421;-59
2023/01/08 11:47:42;;;;;;;47.63;31.35;;;;;;;;;;10098713;28;20562;-59
2023/01/08 11:53:09;;;;;;;54.55;31.50;;;;;;;;;;10080392;28;20056;-60
2023/01/08 11:58:48;;;;;;;55.38;31.52;;;;;;;;;;10086644;28;20056;-62
2023/01/08 12:03:51;;;;;;;46.10;27.48;;;;;;;;;;10093219;28;20582;-59
2023/01/08 12:09:02;;;;;;;55.53;29.30;;;;;;;;;;10097336;28;20045;-60
2023/01/08 12:14:03;;;;;;;49.50;30.52;;;;;;;;;;10096928;28;20076;-59
2023/01/08 12:19:12;;;;;;;51.50;29.67;;;;;;;;;;10096954;28;20063;-60
2023/01/08 12:24:26;;;;;;;64.53;31.85;;;;;;;;;;10105384;28;20049;-60
2023/01/08 12:29:28;;;;;;;59.30;32.50;;;;;;;;;;10107260;28;20048;-60
2023/01/08 12:34:39;;;;;;;57.72;35.28;;;;;;;;;;10106402;28;20043;-63
2023/01/08 12:39:44;;;;;;;64.63;33.88;;;;;;;;;;10106633;28;20052;-60
2023/01/08 12:44:39;;;;;;;59.05;32.25;;;;;;;;;;10111213;28;20049;-60
2023/01/08 12:50:03;;;;;;;64.85;32.10;;;;;;;;;;10111874;28;20107;-60
2023/01/08 12:55:07;;;;;;;60.42;35.40;;;;;;;;;;10097183;28;20060;-60
2023/01/08 13:00:13;;;;;;;65.05;32.80;;;;;;;;;;10096622;28;20053;-60
2023/01/08 13:05:17;;;;;;;55.03;30.65;;;;;;;;;;10096974;28;20051;-60
2023/01/08 13:10:30;;;;;;;53.28;31.90;;;;;;;;;;10089448;28;20061;-60
2023/01/08 13:15:26;;;;;;;52.67;31.13;;;;;;;;;;10095708;28;20067;-61
2023/01/08 13:20:25;;;;;;;57.15;31.77;;;;;;;;;;10092906;28;20064;-60
2023/01/08 13:25:18;;;;;;;47.20;30.48;;;;;;;;;;10096393;28;20045;-61
2023/01/08 13:30:37;;;;;;;59.47;31.92;;;;;;;;;;10097053;28;20068;-61
2023/01/08 13:35:31;;;;;;;54.92;32.90;;;;;;;;;;10100713;28;20052;-61
2023/01/08 13:40:42;;;;;;;59.83;32.60;;;;;;;;;;10109335;28;20041;-61
2023/01/08 13:45:36;;;;;;;61.03;33.88;;;;;;;;;;10106296;28;20049;-61
2023/01/08 13:50:31;;;;;;;58.08;31.42;;;;;;;;;;10103548;28;20045;-61
2023/01/08 13:55:30;;;;;;;61.83;33.33;;;;;;;;;;10103633;28;20568;-61
2023/01/08 14:00:41;;;;;;;58.38;34.78;;;;;;;;;;10100743;28;20073;-61
2023/01/08 14:05:36;;;;;;;56.72;34.70;;;;;;;;;;10092933;28;20057;-61
2023/01/08 14:10:28;;;;;;;50.58;31.95;;;;;;;;;;10090836;28;20058;-61
2023/01/08 14:15:27;;;;;;;60.95;33.88;;;;;;;;;;10088281;28;20053;-61
2023/01/08 14:20:30;;;;;;;61.55;36.03;;;;;;;;;;10101317;28;20045;-61
2023/01/08 14:25:25;;;;;;;77.35;37.17;;;;;;;;;;10101073;28;20065;-60
2023/01/08 14:30:21;;;;;;;62.08;38.10;;;;;;;;;;10097705;28;20069;-60
2023/01/08 14:35:17;;;;;;;68.25;35.30;;;;;;;;;;10099807;28;20076;-60
2023/01/08 14:40:15;;;;;;;57.80;35.25;;;;;;;;;;10094341;28;20044;-60
2023/01/08 14:45:30;;;;;;;52.33;31.73;;;;;;;;;;10094028;28;20046;-60
2023/01/08 14:50:29;;;;;;;55.03;33.00;;;;;;;;;;10095046;28;20417;-60
2023/01/08 14:55:23;;;;;;;57.75;33.30;;;;;;;;;;10115471;28;20049;-60
2023/01/08 15:00:21;;;;;;;53.78;33.10;;;;;;;;;;10121104;28;20055;-60
2023/01/08 15:05:29;;;;;;;61.70;34.45;;;;;;;;;;10104378;28;20110;-60
2023/01/08 15:10:42;;;;;;;57.15;33.72;;;;;;;;;;10093702;28;20056;-60
2023/01/08 15:15:46;;;;;;;62.03;34.10;;;;;;;;;;10109607;28;20056;-60
2023/01/08 15:20:40;;;;;;;62.72;37.33;;;;;;;;;;10104486;28;20076;-59
2023/01/08 15:25:34;;;;;;;58.97;34.78;;;;;;;;;;10113132;28;20041;-60
2023/01/08 15:30:50;;;;;;;59.33;33.45;;;;;;;;;;10103325;28;20452;-60
2023/01/08 15:35:44;;;;;;;65.03;37.50;;;;;;;;;;10104460;28;20051;-60
2023/01/08 15:40:38;;;;;;;69.93;41.38;;;;;;;;;;10107185;28;20498;-60
2023/01/08 15:45:32;;;;;;;71.82;42.08;;;;;;;;;;10104745;28;20049;-60
2023/01/08 15:50:26;;;;;;;59.83;36.60;;;;;;;;;;10106469;28;20201;-60
2023/01/08 15:55:22;;;;;;;69.70;40.38;;;;;;;;;;10096570;28;20063;-60
2023/01/08 16:00:17;;;;;;;67.80;39.50;;;;;;;;;;10108449;28;20049;-60
2023/01/08 16:05:11;;;;;;;78.57;45.67;;;;;;;;;;10104880;28;20048;-60
2023/01/08 16:10:08;;;;;;;75.07;43.55;;;;;;;;;;10123487;28;20102;-60
2023/01/08 16:15:02;;;;;;;69.88;41.33;;;;;;;;;;10110713;28;20106;-60
2023/01/08 16:19:55;;;;;;;69.25;42.85;;;;;;;;;;10109369;28;20056;-60
2023/01/08 16:24:50;;;;;;;72.38;41.78;;;;;;;;;;10108517;28;20076;-60
2023/01/08 16:29:43;;;;;;;65.55;41.55;;;;;;;;;;10119105;28;20119;-59
2023/01/08 16:34:37;;;;;;;71.13;43.90;;;;;;;;;;10105833;28;20136;-60
2023/01/08 16:39:31;;;;;;;86.30;47.13;;;;;;;;;;10115923;28;20072;-60
2023/01/08 16:44:30;;;;;;;68.45;43.97;;;;;;;;;;10112325;28;20048;-59
2023/01/08 16:49:24;;;;;;;;;;;;;;;;;;10106139;28;20049;-60
2023/01/08 16:54:18;;;;;;;75.30;45.50;;;;;;;;;;10119703;28;20007;-60
2023/01/08 16:59:11;;;;;;;73.95;45.85;;;;;;;;;;10125364;28;20053;-60
2023/01/08 17:04:15;;;;;;;75.32;45.00;;;;;;;;;;10107995;28;20429;-60
2023/01/08 17:09:09;;;;;;;82.15;45.70;;;;;;;;;;10114126;28;20071;-60
2023/01/08 17:14:03;;;;;;;82.00;45.53;;;;;;;;;;10124011;28;20067;-60
2023/01/08 17:18:57;;;;;;;85.80;47.83;;;;;;;;;;10115846;28;20120;-60
2023/01/08 17:23:51;;;;;;;78.32;46.67;;;;;;;;;;10114278;28;20048;-60
2023/01/08 17:28:46;;;;;;;89.65;50.72;;;;;;;;;;10120525;28;20045;-60
2023/01/08 17:33:40;;;;;;;82.55;54.65;;;;;;;;;;10115948;28;20417;-60
2023/01/08 17:38:34;;;;;;;87.25;53.00;;;;;;;;;;10107468;28;20057;-60
2023/01/08 17:43:28;;;;;;;87.53;50.55;;;;;;;;;;10125472;28;20049;-60
2023/01/08 17:48:22;;;;;;;93.78;52.38;;;;;;;;;;10119802;28;20056;-61
2023/01/08 17:53:15;;;;;;;94.88;51.83;;;;;;;;;;10101509;28;20497;-60
2023/01/08 17:58:10;;;;;;;100.47;56.90;;;;;;;;;;10118242;28;20633;-60
2023/01/08 18:03:02;;;;;;;106.82;54.03;;;;;;;;;;10120597;28;20128;-60
2023/01/08 18:07:56;;;;;;;96.88;51.10;;;;;;;;;;10115934;28;20049;-60
2023/01/08 18:12:50;;;;;;;105.35;57.55;;;;;;;;;;10111431;28;20056;-60
2023/01/08 18:17:43;;;;;;;102.22;55.25;;;;;;;;;;10108865;28;20055;-60
2023/01/08 18:22:38;;;;;;;104.95;57.85;;;;;;;;;;10122627;28;20045;-60
2023/01/08 18:27:35;;;;;;;102.75;55.95;;;;;;;;;;10097974;28;20045;-60
2023/01/08 18:32:29;;;;;;;109.15;61.60;;;;;;;;;;10105951;28;20045;-60
2023/01/08 18:37:23;;;;;;;108.88;60.20;;;;;;;;;;10111119;28;20048;-60
2023/01/08 18:42:26;;;;;;;117.78;63.50;;;;;;;;;;10109515;28;20528;-59
2023/01/08 18:47:39;;;;;;;117.10;61.78;;;;;;;;;;10112706;28;20085;-60
2023/01/08 18:52:38;;;;;;;103.78;58.22;;;;;;;;;;10104660;28;20060;-59
2023/01/08 18:57:38;;;;;;;135.82;69.47;;;;;;;;;;10107237;28;20049;-59
2023/01/08 19:02:36;;;;;;;116.63;62.28;;;;;;;;;;10107054;28;20398;-60
2023/01/08 19:07:35;;;;;;;124.32;65.03;;;;;;;;;;10107917;28;20583;-60
2023/01/08 19:12:38;;;;;;;121.65;63.55;;;;;;;;;;10100777;28;20057;-59
2023/01/08 19:17:36;;;;;;;113.13;61.88;;;;;;;;;;10111581;28;20052;-60
2023/01/08 19:22:36;;;;;;;135.23;67.70;;;;;;;;;;10110173;28;20083;-60
2023/01/08 19:27:36;;;;;;;129.10;63.65;;;;;;;;;;10102190;28;20083;-60
2023/01/08 19:32:40;;;;;;;156.80;64.13;;;;;;;;;;10104624;28;20517;-60
2023/01/08 19:37:38;;;;;;;120.28;59.58;;;;;;;;;;10113763;28;20045;-59
2023/01/08 19:47:46;;;;;;;139.65;68.05;;;;;;;;;;10140451;28;20040;-60
2023/01/08 19:52:40;;;;;;;118.90;63.78;;;;;;;;;;10136891;28;20056;-60
2023/01/08 19:57:34;;;;;;;156.23;61.88;;;;;;;;;;10132848;28;20049;-59
2023/01/08 20:02:28;;;;;;;123.57;59.85;;;;;;;;;;10132284;28;20045;-59
2023/01/08 20:07:24;;;;;;;102.70;59.75;;;;;;;;;;10133058;28;20032;-59
2023/01/08 20:12:20;;;;;;;134.82;60.58;;;;;;;;;;10135477;28;20505;-59
2023/01/08 20:17:17;;;;;;;131.32;63.75;;;;;;;;;;10127240;28;20444;-59
2023/01/08 20:22:11;;;;;;;108.45;59.58;;;;;;;;;;10129112;28;20044;-59
2023/01/08 20:27:06;;;;;;;102.05;56.50;;;;;;;;;;10105431;28;20065;-60
2023/01/08 20:32:00;;;;;;;107.90;56.70;;;;;;;;;;10107569;28;20094;-60
2023/01/08 20:36:55;;;;;;;94.43;55.72;;;;;;;;;;10108567;28;20036;-60
2023/01/08 20:41:49;;;;;;;91.13;51.92;;;;;;;;;;10105517;28;20408;-60
2023/01/08 20:46:57;;;;;;;99.70;50.67;;;;;;;;;;10116124;28;20420;-60
2023/01/08 20:51:50;;;;;;;87.50;46.20;;;;;;;;;;10112187;28;20413;-59
2023/01/08 20:56:53;;;;;;;79.80;48.40;;;;;;;;;;10107367;28;20501;-60
2023/01/08 21:01:47;;;;;;;89.13;51.90;;;;;;;;;;10117162;28;20055;-60
2023/01/08 21:06:44;;;;;;;91.10;53.72;;;;;;;;;;10094387;28;20067;-59
2023/01/08 21:11:39;;;;;;;101.63;55.58;;;;;;;;;;10085031;28;20083;-60
2023/01/08 21:16:34;;;;;;;95.72;54.15;;;;;;;;;;10097450;28;20056;-60
2023/01/08 21:21:31;;;;;;;89.72;52.88;;;;;;;;;;10098283;28;20514;-60
2023/01/08 21:26:25;;;;;;;95.60;51.15;;;;;;;;;;10096647;28;20509;-60
2023/01/08 21:31:24;;;;;;;96.35;54.63;;;;;;;;;;10094712;28;20512;-61
2023/01/08 21:36:22;;;;;;;93.53;54.10;;;;;;;;;;10094307;28;20505;-62
2023/01/08 21:46:31;;;;;;;104.10;56.25;;;;;;;;;;10082925;28;20107;-61
2023/01/08 21:56:38;;;;;;;118.43;59.95;;;;;;;;;;10089686;28;20409;-60
2023/01/08 22:01:32;;;;;;;104.60;54.78;;;;;;;;;;10102465;28;20140;-60
2023/01/08 22:06:26;;;;;;;115.60;56.42;;;;;;;;;;10094294;28;20059;-60
2023/01/08 22:11:20;;;;;;;123.15;57.38;;;;;;;;;;10098465;28;20073;-60
2023/01/08 22:16:13;;;;;;;99.10;51.20;;;;;;;;;;10094508;28;20049;-60
2023/01/08 22:21:09;;;;;;;87.90;50.75;;;;;;;;;;10097120;28;20057;-60
2023/01/08 22:26:26;;;;;;;82.95;50.92;;;;;;;;;;10113222;28;20049;-60
2023/01/08 22:31:20;;;;;;;80.10;48.72;;;;;;;;;;10117448;28;20083;-60
2023/01/08 22:36:14;;;;;;;90.63;47.60;;;;;;;;;;10122312;28;20041;-60
2023/01/08 22:41:18;;;;;;;91.05;48.22;;;;;;;;;;10106715;28;20486;-60
2023/01/08 22:46:13;;;;;;;93.53;45.60;;;;;;;;;;10113265;28;20080;-60
2023/01/08 22:51:08;;;;;;;84.70;43.58;;;;;;;;;;10114614;28;20091;-59
2023/01/08 22:56:09;;;;;;;80.40;40.53;;;;;;;;;;10109367;28;20063;-59
2023/01/08 23:01:03;;;;;;;72.82;40.65;;;;;;;;;;10107508;28;20128;-59
2023/01/08 23:06:01;;;;;;;76.47;38.55;;;;;;;;;;10119778;28;20053;-59
2023/01/08 23:10:56;;;;;;;65.43;36.80;;;;;;;;;;10110071;28;20080;-59
2023/01/08 23:15:50;;;;;;;62.08;35.38;;;;;;;;;;10108719;28;20471;-59
2023/01/08 23:20:42;;;;;;;66.65;37.03;;;;;;;;;;10108573;28;20077;-59
2023/01/08 23:25:37;;;;;;;66.32;36.85;;;;;;;;;;10104649;28;20409;-59
2023/01/08 23:30:31;;;;;;;62.92;35.65;;;;;;;;;;10108939;28;20056;-60
2023/01/08 23:35:25;;;;;;;57.35;31.67;;;;;;;;;;10114231;28;20095;-59
2023/01/08 23:40:19;;;;;;;59.85;33.15;;;;;;;;;;10105086;28;20053;-59
2023/01/08 23:45:12;;;;;;;52.88;32.42;;;;;;;;;;10114558;28;20053;-59
2023/01/08 23:50:09;;;;;;;49.42;28.17;;;;;;;;;;10107692;28;20049;-60
2023/01/08 23:55:05;;;;;;;43.30;28.38;;;;;;;;;;10106743;28;20527;-59
2023/01/08 23:59:58;;;;;;;45.35;26.77;;;;;;;;;;10108753;28;20471;-59
